Time;durP1;ratioP1;P1;durP2;ratioP2;P2;SDS_P1;SDS_P2;PMS_P1;PMS_P2;Temp;Humidity;BMP_temperature;BMP_pressure;BME280_temperature;BME280_humidity;BME280_pressure;Samples;Min_cycle;Max_cycle;Signal;HPM_P1;HPM_P2
2023/03/25 00:02:01;;;;;;;10.37;6.90;;;;;;;8.74;100.00;99495.97;5049141;56;1138892;-81
2023/03/25 00:07:06;;;;;;;8.03;5.37;;;;;;;8.66;100.00;99506.84;4980549;57;1138959;-83
2023/03/25 00:12:12;;;;;;;16.70;5.97;;;;;;;8.60;100.00;99513.45;5049909;56;1136830;-82
2023/03/25 00:17:19;;;;;;;9.30;5.50;;;;;;;8.53;100.00;99500.95;5087458;56;1138967;-81
2023/03/25 00:22:25;;;;;;;10.77;6.00;;;;;;;8.49;100.00;99487.19;5153185;55;1136703;-85
2023/03/25 00:27:30;;;;;;;9.20;5.67;;;;;;;8.46;100.00;99484.33;5067321;56;1138933;-82
2023/03/25 00:32:38;;;;;;;13.67;5.63;;;;;;;8.43;100.00;99476.68;5087627;57;1137073;-80
2023/03/25 00:37:44;;;;;;;7.87;5.20;;;;;;;8.42;100.00;99467.58;5067558;56;1138891;-84
2023/03/25 00:42:50;;;;;;;7.63;4.70;;;;;;;8.40;100.00;99466.91;5067167;57;1136806;-77
2023/03/25 00:47:56;;;;;;;9.83;6.53;;;;;;;8.45;100.00;99463.38;5017479;57;1136865;-86
2023/03/25 00:53:02;;;;;;;11.00;5.75;;;;;;;8.46;100.00;99457.98;4903873;58;1136765;-77
2023/03/25 00:58:08;;;;;;;11.20;5.73;;;;;;;8.49;100.00;99453.42;4904330;58;1138924;-83
2023/03/25 01:03:14;;;;;;;10.77;5.67;;;;;;;8.52;100.00;99439.98;4904539;58;1139167;-81
2023/03/25 01:08:24;;;;;;;11.07;5.30;;;;;;;8.55;100.00;99437.09;4955923;57;1138839;-81
2023/03/25 01:13:27;;;;;;;7.35;5.22;;;;;;;8.60;100.00;99432.23;4917496;57;1139012;-85
2023/03/25 01:18:36;;;;;;;12.37;6.92;;;;;;;8.71;100.00;99428.17;4905317;57;1136804;-82
2023/03/25 01:23:40;;;;;;;7.43;5.37;;;;;;;8.77;100.00;99423.70;4924440;57;1138931;-84
2023/03/25 01:28:46;;;;;;;12.17;4.67;;;;;;;8.77;100.00;99425.02;4906038;57;1136747;-77
2023/03/25 01:33:52;;;;;;;10.87;4.87;;;;;;;8.65;100.00;99416.87;4905609;57;1138976;-80
2023/03/25 01:39:00;;;;;;;8.03;5.30;;;;;;;8.66;100.00;99401.41;4924823;57;1139051;-80
2023/03/25 01:44:16;;;;;;;8.17;5.37;;;;;;;8.66;100.00;99409.31;4922103;57;1136871;-84
2023/03/25 01:49:28;;;;;;;13.68;5.60;;;;;;;8.60;100.00;99415.11;4998500;56;1136844;-81
2023/03/25 01:54:37;;;;;;;9.80;5.50;;;;;;;8.52;100.00;99423.69;4999657;57;1138872;-83
2023/03/25 01:59:42;;;;;;;12.20;5.43;;;;;;;8.38;100.00;99414.83;4959145;57;1136703;-75
2023/03/25 02:05:01;;;;;;;9.67;5.30;;;;;;;8.38;100.00;99414.83;4984352;57;1138962;-82
2023/03/25 02:10:10;;;;;;;7.87;4.60;;;;;;;8.39;100.00;99434.45;4972071;57;1137010;-79
2023/03/25 02:15:19;;;;;;;10.43;5.63;;;;;;;8.41;100.00;99436.93;5086616;57;1136977;-86
2023/03/25 02:20:35;;;;;;;11.33;5.50;;;;;;;8.37;100.00;99418.42;5067170;56;1148627;-80
2023/03/25 02:25:48;;;;;;;12.30;5.37;;;;;;;8.33;100.00;99420.96;5049710;57;1138793;-81
2023/03/25 02:31:24;;;;;;;10.05;5.85;;;;;;;8.27;100.00;99408.27;5087658;57;1138843;-86
2023/03/25 02:37:04;;;;;;;7.58;5.17;;;;;;;8.22;100.00;99395.52;5067877;56;1138792;-88
2023/03/25 02:42:32;;;;;;;10.17;5.57;;;;;;;8.21;100.00;99395.16;5013438;56;1136927;-84
2023/03/25 02:47:44;;;;;;;7.67;5.13;;;;;;;8.11;100.00;99391.14;4994011;57;1139205;-79
2023/03/25 02:52:57;;;;;;;8.47;4.70;;;;;;;8.01;100.00;99387.64;5087875;55;1136737;-81
2023/03/25 02:58:06;;;;;;;17.20;6.62;;;;;;;7.98;100.00;99389.69;5067306;56;1136811;-81
2023/03/25 03:03:12;;;;;;;6.13;3.90;;;;;;;7.95;100.00;99394.73;5067519;56;1139029;-84
2023/03/25 03:08:50;;;;;;;8.83;4.87;;;;;;;7.88;100.00;99401.97;5071812;55;1136980;-82
2023/03/25 03:14:35;;;;;;;7.53;3.63;;;;;;;7.76;100.00;99419.16;4984528;56;1136690;-78
2023/03/25 03:19:56;;;;;;;10.50;5.20;;;;;;;7.65;100.00;99416.56;4980823;57;1136743;-84
2023/03/25 03:25:06;;;;;;;10.43;5.20;;;;;;;7.60;100.00;99404.29;4985007;57;1138926;-87
2023/03/25 03:30:28;;;;;;;6.53;4.00;;;;;;;7.59;100.00;99401.30;5083844;56;1138822;-84
2023/03/25 03:35:50;;;;;;;7.80;4.50;;;;;;;7.60;100.00;99394.24;5033887;57;1136915;-81
2023/03/25 03:41:00;;;;;;;8.30;4.43;;;;;;;7.61;100.00;99402.01;4873685;57;1137005;-81
2023/03/25 03:46:10;;;;;;;7.93;4.80;;;;;;;7.62;100.00;99393.64;4930855;57;1136772;-83
2023/03/25 03:51:20;;;;;;;11.00;5.60;;;;;;;7.64;100.00;99396.95;5013973;57;1136800;-79
2023/03/25 03:56:45;;;;;;;7.10;4.57;;;;;;;7.64;100.00;99390.38;5046605;56;1138817;-79
2023/03/25 04:01:54;;;;;;;8.08;3.83;;;;;;;7.66;100.00;99405.55;4977997;57;1136711;-81
2023/03/25 04:07:13;;;;;;;7.30;4.57;;;;;;;7.60;100.00;99419.23;4936324;56;1136766;-83
2023/03/25 04:12:23;;;;;;;8.20;4.60;;;;;;;7.52;100.00;99417.23;4991293;56;1137079;-81
2023/03/25 04:17:31;;;;;;;9.63;4.50;;;;;;;7.39;100.00;99416.09;5034021;56;1136784;-79
2023/03/25 04:22:44;;;;;;;5.05;3.67;;;;;;;7.32;100.00;99416.25;5014683;56;1136737;-79
2023/03/25 04:27:57;;;;;;;11.00;5.77;;;;;;;7.26;100.00;99431.69;5014388;56;1136931;-77
2023/03/25 04:32:55;;;;;;;14.90;5.13;;;;;;;7.18;100.00;99436.23;5013721;56;1138796;-80
2023/03/25 04:38:01;;;;;;;8.50;4.43;;;;;;;7.15;100.00;99429.94;4984344;56;1138770;-80
2023/03/25 04:43:07;;;;;;;6.13;4.13;;;;;;;7.12;100.00;99420.14;4984453;56;1136866;-81
2023/03/25 04:48:20;;;;;;;7.55;4.30;;;;;;;7.09;100.00;99419.90;4984888;56;1136858;-83
2023/03/25 04:53:27;;;;;;;10.28;4.90;;;;;;;7.09;100.00;99423.00;5004665;56;1136762;-80
2023/03/25 04:58:35;;;;;;;9.78;5.28;;;;;;;7.08;100.00;99423.96;4904840;57;1139001;-79
2023/03/25 05:03:40;;;;;;;5.33;4.22;;;;;;;7.05;100.00;99418.47;4985228;56;1136824;-80
2023/03/25 05:08:46;;;;;;;8.67;4.37;;;;;;;7.03;100.00;99419.06;4968378;57;1136869;-81
2023/03/25 05:13:51;;;;;;;8.37;4.37;;;;;;;7.03;100.00;99410.70;4978831;57;1136927;-84
2023/03/25 05:18:57;;;;;;;6.83;5.13;;;;;;;7.05;100.00;99415.36;4981545;57;1136932;-85
2023/03/25 05:24:07;;;;;;;9.10;5.20;;;;;;;7.12;100.00;99405.67;5005015;56;1136715;-82
2023/03/25 05:29:15;;;;;;;13.17;9.50;;;;;;;7.17;100.00;99411.41;4985727;56;1136740;-83
2023/03/25 05:34:20;;;;;;;10.83;4.40;;;;;;;7.26;100.00;99413.27;5067688;55;1138943;-87
2023/03/25 05:39:27;;;;;;;6.70;4.67;;;;;;;7.33;100.00;99423.66;5018260;57;1143662;-83
2023/03/25 05:44:33;;;;;;;8.68;4.65;;;;;;;7.35;100.00;99425.66;4980903;57;1136816;-80
2023/03/25 05:49:40;;;;;;;6.90;4.07;;;;;;;7.37;100.00;99429.00;4985495;57;1142328;-80
2023/03/25 05:54:50;;;;;;;9.60;4.83;;;;;;;7.39;100.00;99427.09;5005068;57;1136960;-85
2023/03/25 05:59:54;;;;;;;8.77;4.67;;;;;;;7.39;100.00;99436.30;4985614;57;1136973;-82
2023/03/25 06:05:00;;;;;;;8.20;5.23;;;;;;;7.39;100.00;99437.61;4913733;57;1136844;-81
2023/03/25 06:10:06;;;;;;;4.87;4.13;;;;;;;7.51;100.00;99425.23;4985826;57;1136928;-81
2023/03/25 06:15:16;;;;;;;10.30;4.00;;;;;;;7.68;100.00;99416.31;5011732;56;1136734;-85
2023/03/25 06:20:22;;;;;;;4.77;3.57;;;;;;;7.91;100.00;99415.72;5065060;56;1138825;-87
2023/03/25 06:25:29;;;;;;;9.13;4.37;;;;;;;8.08;100.00;99426.15;4980860;57;1136780;-83
2023/03/25 06:30:35;;;;;;;10.33;3.63;;;;;;;8.15;100.00;99423.81;5076184;56;1137061;-78
2023/03/25 06:35:42;;;;;;;7.00;4.13;;;;;;;8.25;100.00;99412.86;4958716;56;1138935;-82
2023/03/25 06:40:48;;;;;;;5.80;3.90;;;;;;;8.41;100.00;99410.59;5014447;56;1137192;-84
2023/03/25 06:45:54;;;;;;;8.60;3.67;;;;;;;8.66;100.00;99413.27;4980956;57;1136750;-80
2023/03/25 06:51:01;;;;;;;9.90;4.00;;;;;;;8.71;100.00;99410.55;4996860;57;1136862;-80
2023/03/25 06:56:08;;;;;;;8.97;4.20;;;;;;;8.73;100.00;99407.31;4994448;57;1136805;-76
2023/03/25 07:01:13;;;;;;;4.30;3.43;;;;;;;8.72;100.00;99406.95;4999818;57;1136791;-84
2023/03/25 07:06:23;;;;;;;8.90;3.40;;;;;;;8.77;100.00;99414.47;5031927;56;1145031;-84
2023/03/25 07:11:30;;;;;;;8.45;3.20;;;;;;;8.77;100.00;99412.67;5003457;56;1137018;-78
2023/03/25 07:16:36;;;;;;;10.47;3.70;;;;;;;8.85;100.00;99415.13;5032144;57;1137445;-76
2023/03/25 07:21:42;;;;;;;6.93;3.77;;;;;;;8.92;100.00;99405.21;5092085;56;1138846;-82
2023/03/25 07:26:47;;;;;;;4.70;3.67;;;;;;;9.01;100.00;99401.74;4962922;57;1136919;-83
2023/03/25 07:31:55;;;;;;;8.88;3.27;;;;;;;9.12;100.00;99403.45;4988750;56;1136784;-83
2023/03/25 07:37:02;;;;;;;10.60;2.80;;;;;;;9.25;100.00;99401.38;5065894;56;1136821;-84
2023/03/25 07:42:08;;;;;;;10.80;4.43;;;;;;;9.32;100.00;99401.16;5169535;55;1138841;-79
2023/03/25 07:47:32;;;;;;;9.55;3.72;;;;;;;9.34;100.00;99394.42;5086528;56;1138836;-83
2023/03/25 07:52:37;;;;;;;7.57;4.27;;;;;;;9.38;100.00;99401.09;5102328;56;1141038;-78
2023/03/25 07:57:44;;;;;;;9.63;3.90;;;;;;;9.45;100.00;99403.06;5100239;56;1136784;-79
2023/03/25 08:02:51;;;;;;;6.83;2.90;;;;;;;9.53;100.00;99406.30;5063014;56;1136948;-77
2023/03/25 08:08:02;;;;;;;6.70;3.13;;;;;;;9.85;100.00;99398.91;5085172;56;1136997;-78
2023/03/25 08:13:04;;;;;;;6.28;2.67;;;;;;;10.16;100.00;99390.77;5068987;56;1136803;-85
2023/03/25 08:18:10;;;;;;;3.27;2.00;;;;;;;10.37;100.00;99399.86;4989758;56;1139170;-82
2023/03/25 08:23:18;;;;;;;6.40;2.27;;;;;;;10.48;100.00;99387.77;5005885;57;1139018;-81
2023/03/25 08:28:23;;;;;;;6.20;2.27;;;;;;;10.47;100.00;99394.03;4980385;57;1174843;-80
2023/03/25 08:33:33;;;;;;;4.70;2.00;;;;;;;10.53;100.00;99396.10;5073595;56;1138878;-85
2023/03/25 08:38:40;;;;;;;3.27;1.40;;;;;;;10.62;100.00;99395.21;5069422;56;1139095;-81
2023/03/25 08:43:46;;;;;;;3.60;1.27;;;;;;;10.68;100.00;99401.25;4935873;57;1138891;-80
2023/03/25 08:48:52;;;;;;;5.93;1.83;;;;;;;10.67;100.00;99408.00;4981121;56;1138905;-77
2023/03/25 08:53:59;;;;;;;2.77;1.70;;;;;;;10.58;100.00;99405.73;5028197;57;1139324;-79
2023/03/25 08:59:05;;;;;;;3.33;1.80;;;;;;;10.50;100.00;99410.44;4989627;57;1138992;-81
2023/03/25 09:04:11;;;;;;;3.30;1.90;;;;;;;10.45;100.00;99417.13;4995406;56;1138981;-77
2023/03/25 09:09:18;;;;;;;6.70;2.30;;;;;;;10.41;100.00;99415.75;5012718;56;1139236;-83
2023/03/25 09:14:23;;;;;;;4.00;1.50;;;;;;;10.38;100.00;99411.61;4974143;57;1138890;-80
2023/03/25 09:19:29;;;;;;;6.80;1.90;;;;;;;10.36;100.00;99410.91;4951190;56;1138882;-81
2023/03/25 09:24:35;;;;;;;4.73;1.90;;;;;;;10.36;100.00;99411.41;4955182;57;1139664;-79
2023/03/25 09:29:40;;;;;;;2.43;2.13;;;;;;;10.41;100.00;99415.75;4982906;57;1138825;-78
2023/03/25 09:34:47;;;;;;;3.40;1.90;;;;;;;10.48;100.00;99415.52;5019337;57;1138736;-81
2023/03/25 09:39:53;;;;;;;4.67;2.23;;;;;;;10.58;100.00;99417.62;5036278;57;1138707;-80
2023/03/25 09:45:09;;;;;;;4.83;2.30;;;;;;;10.69;100.00;99417.46;5011768;56;1138831;-79
2023/03/25 09:50:17;;;;;;;4.45;2.00;;;;;;;10.76;100.00;99413.72;5022997;57;1138918;-79
2023/03/25 09:55:30;;;;;;;4.47;2.23;;;;;;;10.81;100.00;99421.57;5004951;57;1138952;-78
2023/03/25 10:00:35;;;;;;;3.73;2.10;;;;;;;10.81;100.00;99410.98;5003625;57;1138766;-81
2023/03/25 10:05:54;;;;;;;5.10;1.52;;;;;;;10.80;100.00;99412.45;4990342;56;1138841;-76
2023/03/25 10:11:22;;;;;;;3.17;1.57;;;;;;;10.85;100.00;99411.02;4936092;57;1138705;-81
2023/03/25 10:16:56;;;;;;;7.27;1.40;;;;;;;11.00;100.00;99398.11;5008369;57;1138864;-79
2023/03/25 10:22:27;;;;;;;2.50;0.90;;;;;;;11.36;100.00;99400.80;5010393;57;1138751;-77
2023/03/25 10:27:42;;;;;;;6.35;2.80;;;;;;;11.41;100.00;99394.08;4892277;58;1138738;-84
2023/03/25 10:32:54;;;;;;;5.90;1.37;;;;;;;11.55;100.00;99398.00;5080822;56;1138812;-79
2023/03/25 10:38:19;;;;;;;3.40;1.70;;;;;;;11.69;100.00;99393.48;5138835;55;1138809;-78
2023/03/25 10:43:30;;;;;;;2.73;1.60;;;;;;;12.09;100.00;99377.55;5082737;56;1138688;-82
2023/03/25 10:48:36;;;;;;;5.67;1.70;;;;;;;12.35;100.00;99371.77;5067810;56;1138720;-81
2023/03/25 10:53:45;;;;;;;5.90;2.43;;;;;;;12.64;100.00;99364.26;5055237;56;1138721;-78
2023/03/25 10:58:57;;;;;;;6.57;1.60;;;;;;;12.86;100.00;99360.66;5127858;55;1254760;-83
2023/03/25 11:04:06;;;;;;;3.30;1.40;;;;;;;12.94;100.00;99348.76;4885963;58;1138762;-78
2023/03/25 11:09:29;;;;;;;5.23;2.03;;;;;;;12.86;100.00;99342.91;4987724;57;1139105;-85
2023/03/25 11:14:39;;;;;;;4.30;2.00;;;;;;;12.76;100.00;99344.89;4971307;57;1138827;-77
2023/03/25 11:20:09;;;;;;;4.83;1.10;;;;;;;12.59;100.00;99333.89;4918240;57;1138769;-78
2023/03/25 11:25:24;;;;;;;2.50;0.70;;;;;;;12.29;100.00;99349.84;5068030;56;1138785;-82
2023/03/25 11:30:30;;;;;;;2.50;0.72;;;;;;;12.06;100.00;99358.02;5007798;57;1138988;-81
2023/03/25 11:35:47;;;;;;;4.13;1.20;;;;;;;11.85;100.00;99362.34;5000891;56;1139852;-80
2023/03/25 11:40:57;;;;;;;3.40;1.00;;;;;;;11.72;100.00;99383.08;5011606;56;1139018;-86
2023/03/25 11:46:16;;;;;;;0.63;0.63;;;;;;;11.25;100.00;99397.89;4975751;56;1138895;-86
2023/03/25 11:51:26;;;;;;;2.97;1.23;;;;;;;10.97;100.00;99394.95;4995073;56;1138865;-83
2023/03/25 11:56:50;;;;;;;8.20;5.00;;;;;;;10.83;100.00;99386.55;5041468;56;1138793;-81
2023/03/25 12:02:11;;;;;;;3.80;2.13;;;;;;;10.84;100.00;99385.58;5060662;56;1138852;-81
2023/03/25 12:07:20;;;;;;;2.00;1.70;;;;;;;10.90;100.00;99382.80;5015411;56;1139085;-82
2023/03/25 12:12:37;;;;;;;6.43;2.27;;;;;;;10.85;100.00;99372.66;5024021;56;1138748;-86
2023/03/25 12:17:59;;;;;;;5.83;2.73;;;;;;;10.85;100.00;99371.83;5049072;56;1138805;-85
2023/03/25 12:23:24;;;;;;;4.43;2.00;;;;;;;10.83;100.00;99355.30;4991307;57;1138761;-78
2023/03/25 12:28:46;;;;;;;6.47;2.50;;;;;;;10.89;100.00;99350.72;4981538;57;1138823;-82
2023/03/25 12:33:58;;;;;;;9.93;2.07;;;;;;;11.22;100.00;99319.62;4963180;57;1138979;-86
2023/03/25 12:39:34;;;;;;;2.47;1.72;;;;;;;11.22;100.00;99319.62;5054343;56;1138812;-79
2023/03/25 12:44:59;;;;;;;3.53;2.20;;;;;;;11.74;100.00;99322.84;4983034;57;1138696;-80
2023/03/25 12:50:21;;;;;;;2.20;1.40;;;;;;;12.13;100.00;99315.30;4920057;57;1138672;-77
2023/03/25 12:55:59;;;;;;;2.60;2.13;;;;;;;12.39;100.00;99309.94;5019556;56;1138950;-85
2023/03/25 13:01:45;;;;;;;4.67;1.60;;;;;;;12.55;100.00;99296.24;5061797;56;1139059;-79
2023/03/25 13:07:07;;;;;;;1.77;1.20;;;;;;;12.77;100.00;99292.66;4983371;56;1138791;-81
2023/03/25 13:12:32;;;;;;;2.70;1.57;;;;;;;12.73;100.00;99293.97;4981072;57;1138946;-82
2023/03/25 13:18:06;;;;;;;3.13;1.57;;;;;;;12.61;100.00;99290.80;4905154;57;1138777;-82
2023/03/25 13:23:16;;;;;;;3.62;0.92;;;;;;;12.58;100.00;99297.75;4928406;57;1138842;-84
2023/03/25 13:28:29;;;;;;;3.47;1.73;;;;;;;12.34;100.00;99294.53;5023130;56;1138716;-78
2023/03/25 13:33:36;;;;;;;;;;;;;;;12.24;100.00;99297.29;5102455;56;1138669;-90
2023/03/25 13:38:49;;;;;;;3.93;1.70;;;;;;;12.21;100.00;99291.50;5028307;56;976136;-79
2023/03/25 13:44:22;;;;;;;2.73;1.87;;;;;;;12.21;100.00;99297.63;5048966;57;1136845;-80
2023/03/25 13:49:44;;;;;;;1.27;0.75;;;;;;;12.15;100.00;99306.70;5027015;57;1138913;-76
2023/03/25 13:54:54;;;;;;;1.63;0.50;;;;;;;11.88;100.00;99326.27;4960540;56;1138875;-81
2023/03/25 14:00:10;;;;;;;0.55;0.55;;;;;;;11.33;100.00;99335.75;5112499;56;1138862;-82
2023/03/25 14:05:38;;;;;;;1.07;0.55;;;;;;;11.07;100.00;99340.16;5010648;56;1138802;-80
2023/03/25 14:10:51;;;;;;;5.20;1.63;;;;;;;10.87;100.00;99329.70;4972292;56;1138713;-84
2023/03/25 14:16:08;;;;;;;3.10;1.33;;;;;;;11.07;100.00;99322.95;5012707;57;1138823;-76
2023/03/25 14:21:37;;;;;;;2.75;1.47;;;;;;;11.07;100.00;99322.95;5040429;56;1138765;-80
2023/03/25 14:26:52;;;;;;;2.37;1.83;;;;;;;11.37;100.00;99308.48;5153660;55;1138837;-81
2023/03/25 14:32:18;;;;;;;4.40;1.33;;;;;;;11.73;100.00;99310.58;5046073;56;1138628;-82
2023/03/25 14:37:27;;;;;;;3.47;1.20;;;;;;;11.90;100.00;99318.52;4961806;57;1138831;-77
2023/03/25 14:42:48;;;;;;;3.80;1.60;;;;;;;11.92;100.00;99316.51;4983612;58;1138836;-80
2023/03/25 14:47:54;;;;;;;6.03;2.13;;;;;;;11.83;100.00;99308.68;4978227;57;1138862;-77
2023/03/25 14:53:08;;;;;;;2.40;1.05;;;;;;;11.71;100.00;99316.03;4984137;57;1138823;-78
2023/03/25 14:58:26;;;;;;;5.93;1.53;;;;;;;11.61;100.00;99311.31;4980868;57;1138709;-80
2023/03/25 15:03:39;;;;;;;2.57;1.67;;;;;;;11.51;100.00;99311.41;5059693;56;1138763;-81
2023/03/25 15:08:49;;;;;;;;;;;;;;;11.41;100.00;99318.62;5007506;57;1138766;-85
2023/03/25 15:13:58;;;;;;;1.20;0.80;;;;;;;11.27;100.00;99331.09;5000358;57;976053;-76
2023/03/25 15:19:12;;;;;;;0.60;0.60;;;;;;;11.03;100.00;99330.36;4989107;57;1136684;-79
2023/03/25 15:24:26;;;;;;;2.77;0.60;;;;;;;10.91;100.00;99317.02;5058299;56;1138801;-77
2023/03/25 15:29:53;;;;;;;2.17;0.67;;;;;;;11.11;100.00;99293.41;5018585;57;1138893;-77
2023/03/25 15:35:54;;;;;;;1.07;0.47;;;;;;;11.50;100.00;99297.83;4978661;56;1138715;-77
2023/03/25 15:41:13;;;;;;;2.00;1.07;;;;;;;11.83;100.00;99296.76;4983441;57;1138801;-83
2023/03/25 15:46:47;;;;;;;2.85;0.88;;;;;;;11.98;100.00;99300.48;4948233;57;1138991;-82
2023/03/25 15:52:21;;;;;;;1.17;1.07;;;;;;;11.93;100.00;99294.33;4959876;57;1138802;-77
2023/03/25 15:57:38;;;;;;;;;;;;;;;11.85;100.00;99290.81;5036674;56;1138773;-81
2023/03/25 16:02:57;;;;;;;10.13;4.40;;;;;;;11.76;100.00;99285.14;5117241;56;976201;-75
2023/03/25 16:08:13;;;;;;;30.67;15.33;;;;;;;11.66;100.00;99279.07;5061544;56;1138763;-78
2023/03/25 16:13:26;;;;;;;32.23;16.73;;;;;;;11.60;100.00;99281.38;4969718;56;1143014;-80
2023/03/25 16:18:28;;;;;;;18.53;6.90;;;;;;;11.59;100.00;99296.09;4936667;57;1145917;-82
2023/03/25 16:23:36;;;;;;;1.37;1.27;;;;;;;11.50;100.00;99320.83;5028917;57;1140982;-78
2023/03/25 16:28:42;;;;;;;2.40;2.17;;;;;;;11.19;100.00;99309.83;5004867;57;1181326;-77
2023/03/25 16:33:48;;;;;;;4.47;4.03;;;;;;;10.94;100.00;99323.34;5004220;56;1138835;-79
2023/03/25 16:38:53;;;;;;;2.27;1.67;;;;;;;10.76;100.00;99336.53;5035872;57;1138673;-83
2023/03/25 16:43:59;;;;;;;1.50;1.33;;;;;;;10.62;100.00;99342.82;5074080;55;1138692;-83
2023/03/25 16:49:07;;;;;;;2.70;1.17;;;;;;;10.51;100.00;99337.25;4982212;56;1138696;-75
2023/03/25 16:54:37;;;;;;;2.60;1.22;;;;;;;10.42;100.00;99342.91;5038178;56;1138891;-78
2023/03/25 16:59:45;;;;;;;5.33;2.97;;;;;;;10.39;100.00;99345.84;4968501;57;1139024;-80
2023/03/25 17:04:53;;;;;;;1.17;1.07;;;;;;;10.53;100.00;99344.55;4967454;57;1138848;-77
2023/03/25 17:10:01;;;;;;;46.27;19.73;;;;;;;10.69;100.00;99342.09;4972147;57;1138982;-75
2023/03/25 17:15:09;;;;;;;54.37;25.90;;;;;;;10.89;100.00;99344.11;5003269;56;1249098;-77
2023/03/25 17:20:29;;;;;;;38.90;18.12;;;;;;;10.89;100.00;99344.11;4961361;57;1142910;-84
2023/03/25 17:26:00;;;;;;;40.77;20.47;;;;;;;10.93;100.00;99354.73;4992213;56;1143023;-75
2023/03/25 17:31:29;;;;;;;40.37;19.07;;;;;;;10.81;100.00;99350.16;4997879;57;1143030;-78
2023/03/25 17:36:41;;;;;;;49.90;27.00;;;;;;;10.66;100.00;99356.09;4931024;56;1142904;-82
2023/03/25 17:41:52;;;;;;;100.13;44.70;;;;;;;10.60;100.00;99354.86;4977689;57;1243717;-79
2023/03/25 17:46:58;;;;;;;119.07;56.97;;;;;;;10.62;100.00;99355.55;5084346;56;1145016;-76
2023/03/25 17:52:04;;;;;;;96.43;50.20;;;;;;;10.52;100.00;99357.42;5040214;56;1145108;-77
2023/03/25 17:57:14;;;;;;;144.17;55.07;;;;;;;10.46;100.00;99353.55;5040348;56;1256569;-78
2023/03/25 18:02:20;;;;;;;69.25;34.95;;;;;;;10.37;100.00;99357.57;4916277;56;1257341;-76
2023/03/25 18:07:26;;;;;;;18.92;9.13;;;;;;;10.29;100.00;99368.85;5007577;57;1251724;-83
2023/03/25 18:12:32;;;;;;;7.83;4.60;;;;;;;10.08;100.00;99380.91;5054547;56;1254061;-82
2023/03/25 18:17:38;;;;;;;12.53;4.87;;;;;;;9.92;100.00;99386.47;5066443;56;1138854;-81
2023/03/25 18:22:44;;;;;;;17.50;8.03;;;;;;;9.81;100.00;99399.33;5032983;57;1139006;-79
2023/03/25 18:27:56;;;;;;;19.07;7.83;;;;;;;9.75;100.00;99391.98;5064787;56;1251661;-79
2023/03/25 18:33:01;;;;;;;10.00;5.40;;;;;;;9.66;100.00;99400.73;4984835;56;1138946;-69
2023/03/25 18:38:09;;;;;;;20.48;9.75;;;;;;;9.53;100.00;99398.39;5007210;57;1138923;-76
2023/03/25 18:43:15;;;;;;;15.53;7.47;;;;;;;9.50;100.00;99391.58;5002584;56;1138796;-68
2023/03/25 18:48:22;;;;;;;14.78;6.83;;;;;;;9.52;100.00;99383.52;4979130;56;1138954;-72
2023/03/25 18:53:30;;;;;;;14.10;7.00;;;;;;;9.56;100.00;99373.52;4980203;57;1138809;-71
2023/03/25 18:58:37;;;;;;;10.63;4.40;;;;;;;9.65;100.00;99374.82;5003701;57;1138689;-69
2023/03/25 19:03:42;;;;;;;14.47;6.43;;;;;;;9.70;100.00;99376.56;4972311;56;1138690;-65
2023/03/25 19:08:48;;;;;;;24.93;11.20;;;;;;;9.73;100.00;99388.66;4973348;57;1224086;-75
2023/03/25 19:13:54;;;;;;;29.87;15.37;;;;;;;9.72;100.00;99392.27;4918906;58;1170068;-69
2023/03/25 19:19:00;;;;;;;22.40;10.28;;;;;;;9.59;100.00;99401.80;4894956;58;1232944;-69
2023/03/25 19:24:05;;;;;;;6.10;2.73;;;;;;;9.45;100.00;99394.30;4900692;58;1180793;-79
2023/03/25 19:29:11;;;;;;;28.20;14.87;;;;;;;9.33;100.00;99405.95;4935290;57;1146628;-74
2023/03/25 19:34:17;;;;;;;28.98;13.82;;;;;;;9.22;100.00;99375.75;5017912;57;1140886;-70
2023/03/25 19:39:22;;;;;;;26.27;10.15;;;;;;;9.13;100.00;99366.39;5022632;56;1140906;-73
2023/03/25 19:44:28;;;;;;;6.73;3.93;;;;;;;9.06;100.00;99365.73;5004114;56;1140830;-70
2023/03/25 19:49:34;;;;;;;5.43;2.70;;;;;;;8.93;100.00;99378.36;5026379;56;1136751;-75
2023/03/25 19:54:40;;;;;;;5.63;3.10;;;;;;;8.81;100.00;99385.56;5037556;56;1136899;-74
2023/03/25 19:59:46;;;;;;;19.43;6.70;;;;;;;8.71;100.00;99392.11;5013992;56;1136693;-77
2023/03/25 20:04:53;;;;;;;6.60;3.03;;;;;;;8.63;100.00;99395.08;5029495;57;1138717;-74
2023/03/25 20:09:58;;;;;;;4.30;2.43;;;;;;;8.56;100.00;99392.61;5009723;57;1136747;-69
2023/03/25 20:15:06;;;;;;;12.13;5.43;;;;;;;8.49;100.00;99390.17;4986950;56;1136705;-67
2023/03/25 20:20:13;;;;;;;7.37;3.08;;;;;;;8.44;100.00;99380.86;5087435;56;1138838;-70
2023/03/25 20:25:20;;;;;;;5.43;3.47;;;;;;;8.37;100.00;99373.16;5022730;56;1136815;-74
2023/03/25 20:30:26;;;;;;;10.08;5.20;;;;;;;8.37;100.00;99371.00;5004155;57;1136909;-75
2023/03/25 20:35:32;;;;;;;23.67;8.10;;;;;;;8.38;100.00;99360.81;5075672;56;1138964;-76
2023/03/25 20:40:38;;;;;;;7.67;4.57;;;;;;;8.36;100.00;99362.75;5074314;57;1138785;-72
2023/03/25 20:45:44;;;;;;;5.30;3.37;;;;;;;8.32;100.00;99358.70;5067706;56;1136671;-74
2023/03/25 20:50:52;;;;;;;6.20;3.33;;;;;;;8.27;100.00;99347.69;5041925;56;1136710;-74
2023/03/25 20:55:59;;;;;;;16.73;9.73;;;;;;;8.23;100.00;99346.31;5040816;55;1136619;-67
2023/03/25 21:01:06;;;;;;;7.20;3.50;;;;;;;8.19;100.00;99348.84;4992746;56;1138844;-74
2023/03/25 21:06:13;;;;;;;7.23;3.33;;;;;;;8.12;100.00;99349.36;5038303;56;1136862;-73
2023/03/25 21:11:18;;;;;;;7.90;4.32;;;;;;;8.07;100.00;99350.27;4962210;57;1136908;-78
2023/03/25 21:16:25;;;;;;;10.00;4.62;;;;;;;8.02;100.00;99352.45;5020184;56;1136699;-75
2023/03/25 21:21:32;;;;;;;9.70;4.83;;;;;;;7.97;100.00;99345.89;4950258;56;1138796;-70
2023/03/25 21:26:38;;;;;;;6.17;3.97;;;;;;;7.96;100.00;99344.23;4969739;56;1136927;-78
2023/03/25 21:31:44;;;;;;;7.97;4.33;;;;;;;7.88;100.00;99344.06;5003271;56;1136742;-74
2023/03/25 21:36:49;;;;;;;9.77;5.13;;;;;;;7.80;100.00;99357.86;5015429;56;1136950;-69
2023/03/25 21:41:55;;;;;;;10.13;4.47;;;;;;;7.77;100.00;99347.61;4938126;57;1136747;-76
2023/03/25 21:47:05;;;;;;;8.80;4.93;;;;;;;7.67;100.00;99342.27;4963836;57;1138766;-72
2023/03/25 21:52:11;;;;;;;10.23;5.33;;;;;;;7.65;100.00;99346.83;4951085;56;1136864;-68
2023/03/25 21:57:15;;;;;;;12.27;5.17;;;;;;;7.63;100.00;99339.57;4961951;57;1144986;-73
2023/03/25 22:02:24;;;;;;;7.53;4.53;;;;;;;7.64;100.00;99336.42;4971809;58;1138744;-73
2023/03/25 22:07:31;;;;;;;11.40;4.40;;;;;;;7.65;100.00;99334.15;4995801;56;1136609;-70
2023/03/25 22:12:40;;;;;;;10.13;4.90;;;;;;;7.63;100.00;99336.94;4943226;57;1139030;-73
2023/03/25 22:17:45;;;;;;;10.37;5.20;;;;;;;7.62;100.00;99323.42;5050960;56;1138969;-70
2023/03/25 22:22:52;;;;;;;6.77;4.07;;;;;;;7.63;100.00;99322.95;5014026;57;1138996;-78
2023/03/25 22:27:58;;;;;;;11.27;5.00;;;;;;;7.63;100.00;99313.25;5067141;56;1136665;-65
2023/03/25 22:33:04;;;;;;;8.70;4.50;;;;;;;7.64;100.00;99307.48;4992069;57;1139007;-72
2023/03/25 22:38:10;;;;;;;9.10;4.47;;;;;;;7.61;100.00;99311.23;4916810;57;1136834;-72
2023/03/25 22:43:15;;;;;;;7.33;3.83;;;;;;;7.61;100.00;99307.77;4958406;56;1136697;-76
2023/03/25 22:48:21;;;;;;;6.47;3.77;;;;;;;7.64;100.00;99299.59;5066762;57;1136644;-68
2023/03/25 22:53:27;;;;;;;8.93;4.30;;;;;;;7.67;100.00;99298.85;5045582;56;1136709;-71
2023/03/25 22:58:33;;;;;;;10.97;4.27;;;;;;;7.66;100.00;99298.98;5026808;56;1136566;-70
2023/03/25 23:03:40;;;;;;;6.23;4.10;;;;;;;7.64;100.00;99289.89;5047247;56;1139027;-69
2023/03/25 23:08:45;;;;;;;7.63;3.67;;;;;;;7.63;100.00;99293.52;4936101;57;1136935;-71
2023/03/25 23:13:58;;;;;;;4.10;3.53;;;;;;;7.64;100.00;99284.63;5012573;57;1136808;-71
2023/03/25 23:19:08;;;;;;;6.63;2.90;;;;;;;7.64;100.00;99289.89;5087661;56;1136742;-73
2023/03/25 23:24:13;;;;;;;6.60;3.70;;;;;;;7.60;100.00;99293.77;4987609;57;1136618;-72
2023/03/25 23:29:19;;;;;;;5.60;3.30;;;;;;;7.62;100.00;99297.59;4985259;57;1136776;-74
2023/03/25 23:34:25;;;;;;;7.80;2.70;;;;;;;7.62;100.00;99294.48;5087421;56;1136716;-72
2023/03/25 23:39:30;;;;;;;3.65;2.27;;;;;;;7.65;100.00;99295.52;4984896;56;1136779;-71